createdAt,value
2022-10-23T00:01:38.543Z,13.30
2022-10-23T00:04:26.431Z,13.30
2022-10-23T00:07:15.566Z,13.30
2022-10-23T00:10:03.534Z,13.30
2022-10-23T00:12:51.657Z,13.30
2022-10-23T00:15:39.477Z,13.20
2022-10-23T00:18:27.317Z,13.30
2022-10-23T00:21:16.855Z,13.30
2022-10-23T00:24:06.721Z,13.20
2022-10-23T00:26:54.808Z,13.20
2022-10-23T00:29:42.662Z,13.20
2022-10-23T00:35:23.284Z,13.20
2022-10-23T00:38:11.807Z,13.20
2022-10-23T00:41:01.312Z,13.30
2022-10-23T00:43:57.129Z,13.30
2022-10-23T00:46:46.020Z,13.30
2022-10-23T00:49:34.640Z,13.30
2022-10-23T00:52:22.757Z,13.40
2022-10-23T00:55:10.861Z,13.30
2022-10-23T00:58:00.206Z,13.20
2022-10-23T01:00:48.934Z,13.20
2022-10-23T01:03:37.000Z,13.20
2022-10-23T01:06:31.333Z,13.10
2022-10-23T01:09:23.914Z,13.20
2022-10-23T01:12:16.032Z,13.20
2022-10-23T01:15:07.614Z,13.20
2022-10-23T01:17:58.010Z,13.20
2022-10-23T01:20:46.681Z,13.20
2022-10-23T01:23:41.687Z,13.20
2022-10-23T01:26:39.051Z,13.20
2022-10-23T01:29:30.738Z,13.20
2022-10-23T01:32:21.191Z,13.20
2022-10-23T01:35:12.668Z,13.20
2022-10-23T01:38:04.813Z,13.20
2022-10-23T01:40:57.593Z,13.20
2022-10-23T01:43:46.911Z,13.20
2022-10-23T01:46:37.487Z,13.20
2022-10-23T01:49:25.317Z,13.10
2022-10-23T01:52:15.152Z,13.10
2022-10-23T01:55:02.987Z,13.10
2022-10-23T01:57:51.360Z,13.00
2022-10-23T02:00:40.440Z,13.00
2022-10-23T02:03:30.325Z,13.00
2022-10-23T02:06:18.300Z,13.00
2022-10-23T02:09:06.300Z,13.00
2022-10-23T02:11:56.141Z,13.00
2022-10-23T02:14:46.877Z,12.90
2022-10-23T02:17:39.698Z,12.90
2022-10-23T02:20:30.498Z,12.90
2022-10-23T02:23:20.767Z,12.90
2022-10-23T02:26:09.511Z,12.80
2022-10-23T02:28:59.569Z,12.80
2022-10-23T02:31:47.330Z,12.80
2022-10-23T02:34:35.251Z,12.80
2022-10-23T02:37:25.440Z,12.80
2022-10-23T02:40:13.287Z,12.80
2022-10-23T02:43:03.082Z,12.80
2022-10-23T02:45:55.019Z,12.90
2022-10-23T02:48:44.111Z,12.90
2022-10-23T02:51:35.087Z,12.90
2022-10-23T02:54:28.272Z,13.00
2022-10-23T02:57:20.209Z,12.90
2022-10-23T03:00:10.944Z,12.90
2022-10-23T03:03:00.093Z,13.00
2022-10-23T03:05:47.990Z,12.90
2022-10-23T03:08:42.163Z,13.00
2022-10-23T03:11:31.448Z,13.00
2022-10-23T03:14:19.598Z,13.00
2022-10-23T03:17:07.533Z,13.00
2022-10-23T03:19:55.587Z,13.00
2022-10-23T03:22:43.649Z,12.90
2022-10-23T03:25:31.665Z,12.90
2022-10-23T03:28:21.128Z,12.80
2022-10-23T03:31:08.968Z,12.80
2022-10-23T03:33:56.786Z,12.70
2022-10-23T03:36:44.585Z,12.60
2022-10-23T03:39:32.651Z,12.50
2022-10-23T03:42:20.510Z,12.40
2022-10-23T03:45:10.326Z,12.40
2022-10-23T03:47:58.143Z,12.30
2022-10-23T03:50:45.967Z,12.30
2022-10-23T03:53:33.830Z,12.20
2022-10-23T03:56:21.623Z,12.10
2022-10-23T03:59:09.364Z,12.10
2022-10-23T04:01:59.588Z,12.10
2022-10-23T04:04:47.627Z,12.00
2022-10-23T04:07:35.618Z,12.00
2022-10-23T04:10:26.328Z,11.90
2022-10-23T04:13:14.170Z,12.00
2022-10-23T04:16:02.032Z,11.90
2022-10-23T04:18:51.147Z,12.10
2022-10-23T04:21:39.015Z,12.10
2022-10-23T04:24:26.922Z,12.20
2022-10-23T04:27:14.846Z,12.20
2022-10-23T04:30:03.758Z,12.10
2022-10-23T04:32:51.586Z,12.00
2022-10-23T04:35:42.153Z,11.90
2022-10-23T04:38:30.066Z,11.90
2022-10-23T04:41:18.010Z,11.80
2022-10-23T04:44:05.875Z,11.80
2022-10-23T04:46:53.732Z,11.80
2022-10-23T04:49:41.542Z,11.70
2022-10-23T04:52:30.738Z,11.70
2022-10-23T04:55:18.549Z,11.70
2022-10-23T04:58:06.871Z,11.70
2022-10-23T05:00:54.815Z,11.70
2022-10-23T05:03:42.645Z,11.90
2022-10-23T05:06:30.406Z,12.00
2022-10-23T05:09:19.461Z,12.00
2022-10-23T05:12:07.322Z,11.80
2022-10-23T05:14:55.068Z,11.80
2022-10-23T05:17:44.070Z,11.60
2022-10-23T05:20:33.864Z,11.50
2022-10-23T05:23:23.125Z,11.40
2022-10-23T05:26:12.203Z,11.30
2022-10-23T05:28:59.934Z,11.30
2022-10-23T05:31:47.833Z,11.30
2022-10-23T05:34:36.520Z,11.20
2022-10-23T05:37:24.275Z,11.20
2022-10-23T05:40:12.590Z,11.10
2022-10-23T05:43:01.666Z,11.10
2022-10-23T05:45:51.149Z,11.00
2022-10-23T05:48:38.933Z,11.00
2022-10-23T05:51:26.711Z,11.00
2022-10-23T05:54:14.542Z,10.90
2022-10-23T05:57:02.354Z,10.90
2022-10-23T05:59:51.431Z,10.80
2022-10-23T06:02:39.539Z,10.80
2022-10-23T06:05:27.564Z,10.80
2022-10-23T06:08:15.513Z,10.80
2022-10-23T06:11:07.314Z,10.80
2022-10-23T06:13:55.078Z,10.80
2022-10-23T06:16:44.262Z,10.80
2022-10-23T06:19:32.255Z,10.70
2022-10-23T06:25:12.845Z,10.80
2022-10-23T06:28:00.620Z,10.80
2022-10-23T06:30:48.509Z,10.70
2022-10-23T06:33:37.672Z,10.60
2022-10-23T06:36:25.923Z,10.60
2022-10-23T06:39:13.845Z,10.60
2022-10-23T06:42:01.679Z,10.60
2022-10-23T06:44:50.281Z,10.60
2022-10-23T06:47:38.099Z,10.50
2022-10-23T06:50:27.591Z,10.50
2022-10-23T06:53:15.428Z,10.50
2022-10-23T06:56:03.690Z,10.50
2022-10-23T06:58:51.509Z,10.50
2022-10-23T07:01:39.614Z,10.50
2022-10-23T07:04:27.684Z,10.60
2022-10-23T07:07:16.845Z,10.60
2022-10-23T07:10:05.106Z,10.70
2022-10-23T07:12:52.861Z,10.70
2022-10-23T07:15:40.685Z,10.80
2022-10-23T07:18:28.464Z,10.80
2022-10-23T07:21:16.706Z,10.80
2022-10-23T07:24:06.133Z,10.90
2022-10-23T07:26:53.915Z,10.90
2022-10-23T07:29:42.088Z,11.00
2022-10-23T07:32:29.885Z,11.10
2022-10-23T07:35:18.226Z,11.20
2022-10-23T07:38:06.062Z,11.30
2022-10-23T07:40:57.630Z,11.50
2022-10-23T07:43:45.579Z,11.60
2022-10-23T07:46:33.352Z,11.70
2022-10-23T07:49:21.399Z,11.90
2022-10-23T07:52:09.359Z,12.00
2022-10-23T07:54:57.242Z,12.10
2022-10-23T07:57:46.442Z,12.20
2022-10-23T08:00:34.392Z,12.30
2022-10-23T08:03:22.435Z,12.50
2022-10-23T08:06:10.349Z,12.60
2022-10-23T08:08:59.973Z,12.70
2022-10-23T08:11:50.210Z,12.80
2022-10-23T08:14:39.476Z,12.90
2022-10-23T08:17:28.362Z,13.00
2022-10-23T08:20:16.338Z,13.10
2022-10-23T08:23:04.279Z,13.10
2022-10-23T08:25:57.510Z,13.20
2022-10-23T08:28:45.311Z,13.20
2022-10-23T08:31:34.553Z,13.30
2022-10-23T08:34:22.399Z,13.30
2022-10-23T08:37:10.147Z,13.30
2022-10-23T08:39:57.885Z,13.30
2022-10-23T08:42:47.587Z,13.40
2022-10-23T08:45:37.396Z,13.40
2022-10-23T08:48:27.541Z,13.40
2022-10-23T08:51:17.249Z,13.50
2022-10-23T08:54:08.887Z,13.50
2022-10-23T08:57:04.312Z,13.60
2022-10-23T08:59:57.937Z,13.70
2022-10-23T09:02:46.936Z,13.70
2022-10-23T09:05:37.375Z,13.80
2022-10-23T09:08:35.078Z,13.80
2022-10-23T09:11:25.946Z,13.90
2022-10-23T09:14:29.656Z,13.90
2022-10-23T09:17:19.322Z,14.00
2022-10-23T09:20:13.549Z,14.00
2022-10-23T09:23:03.671Z,14.10
2022-10-23T09:25:55.519Z,14.10
2022-10-23T09:28:46.532Z,14.20
2022-10-23T09:31:34.243Z,14.20
2022-10-23T09:34:22.863Z,14.20
2022-10-23T09:37:21.625Z,14.30
2022-10-23T09:40:17.541Z,14.30
2022-10-23T09:43:12.995Z,14.30
2022-10-23T09:46:01.819Z,14.30
2022-10-23T09:49:00.880Z,14.30
2022-10-23T09:51:53.760Z,14.50
2022-10-23T09:54:46.014Z,14.50
2022-10-23T09:57:38.307Z,14.50
2022-10-23T10:00:26.836Z,14.60
2022-10-23T10:03:20.488Z,14.70
2022-10-23T10:06:21.967Z,14.80
2022-10-23T10:09:13.071Z,14.90
2022-10-23T10:12:08.071Z,15.00
2022-10-23T10:15:02.177Z,15.00
2022-10-23T10:17:55.227Z,15.10
2022-10-23T10:20:46.611Z,15.20
2022-10-23T10:23:40.418Z,15.30
2022-10-23T10:26:35.688Z,15.30
2022-10-23T10:29:30.658Z,15.40
2022-10-23T10:32:27.313Z,15.40
2022-10-23T10:35:20.202Z,15.50
2022-10-23T10:38:25.820Z,15.50
2022-10-23T10:41:21.429Z,15.60
2022-10-23T10:44:15.398Z,15.60
2022-10-23T10:47:06.841Z,15.70
2022-10-23T10:50:03.656Z,15.80
2022-10-23T10:52:57.665Z,15.80
2022-10-23T10:55:48.075Z,15.90
2022-10-23T10:58:39.600Z,15.90
2022-10-23T11:01:29.596Z,15.90
2022-10-23T11:04:23.198Z,16.00
2022-10-23T11:07:14.159Z,16.00
2022-10-23T11:10:04.643Z,16.00
2022-10-23T11:12:52.558Z,16.00
2022-10-23T11:15:42.051Z,16.10
2022-10-23T11:18:31.399Z,16.10
2022-10-23T11:21:23.359Z,16.10
2022-10-23T11:24:32.291Z,16.20
2022-10-23T11:27:27.488Z,16.20
2022-10-23T11:30:23.983Z,16.20
2022-10-23T11:33:30.707Z,16.20
2022-10-23T11:36:19.477Z,16.20
2022-10-23T11:39:15.276Z,16.20
2022-10-23T11:42:13.581Z,16.10
2022-10-23T11:45:02.737Z,16.10
2022-10-23T11:47:57.398Z,16.20
2022-10-23T11:50:50.915Z,16.20
2022-10-23T11:53:39.809Z,16.20
2022-10-23T11:56:31.155Z,16.30
2022-10-23T11:59:22.604Z,16.30
2022-10-23T12:02:22.628Z,16.30
2022-10-23T12:05:26.230Z,16.30
2022-10-23T12:08:21.224Z,16.30
2022-10-23T12:11:27.503Z,16.30
2022-10-23T12:14:28.934Z,16.30
2022-10-23T12:17:31.538Z,16.30
2022-10-23T12:20:24.709Z,16.30
2022-10-23T12:23:27.349Z,16.30
2022-10-23T12:26:21.180Z,16.30
2022-10-23T12:29:13.367Z,16.30
2022-10-23T12:32:06.371Z,16.20
2022-10-23T12:35:06.915Z,16.20
2022-10-23T12:38:01.137Z,16.20
2022-10-23T12:40:52.347Z,16.20
2022-10-23T12:43:41.250Z,16.20
2022-10-23T12:46:31.007Z,16.10
2022-10-23T12:49:19.886Z,16.20
2022-10-23T12:52:15.880Z,16.20
2022-10-23T12:55:14.142Z,16.20
2022-10-23T12:58:01.869Z,16.20
2022-10-23T13:00:53.579Z,16.30
2022-10-23T13:03:41.902Z,16.30
2022-10-23T13:06:30.131Z,16.30
2022-10-23T13:09:21.742Z,16.40
2022-10-23T13:12:18.858Z,16.50
2022-10-23T13:15:16.069Z,16.50
2022-10-23T13:18:04.847Z,16.60
2022-10-23T13:20:59.663Z,16.70
2022-10-23T13:23:47.873Z,16.70
2022-10-23T13:26:36.202Z,16.80
2022-10-23T13:29:26.764Z,16.80
2022-10-23T13:32:22.824Z,16.90
2022-10-23T13:35:22.300Z,17.00
2022-10-23T13:38:10.227Z,17.00
2022-10-23T13:40:59.089Z,17.10
2022-10-23T13:43:47.522Z,17.20
2022-10-23T13:46:36.590Z,17.30
2022-10-23T13:49:24.336Z,17.30
2022-10-23T13:52:13.633Z,17.40
2022-10-23T13:55:01.313Z,17.50
2022-10-23T13:57:49.027Z,17.50
2022-10-23T14:00:36.795Z,17.50
2022-10-23T14:03:25.856Z,17.50
2022-10-23T14:06:13.578Z,17.60
2022-10-23T14:09:01.466Z,17.60
2022-10-23T14:11:49.220Z,17.60
2022-10-23T14:14:37.117Z,17.60
2022-10-23T14:17:24.858Z,17.60
2022-10-23T14:20:14.113Z,17.60
2022-10-23T14:23:01.828Z,17.60
2022-10-23T14:25:49.559Z,17.50
2022-10-23T14:28:37.738Z,17.50
2022-10-23T14:31:26.990Z,17.50
2022-10-23T14:34:14.682Z,17.40
2022-10-23T14:37:08.583Z,17.40
2022-10-23T14:39:57.028Z,17.40
2022-10-23T14:42:44.967Z,17.30
2022-10-23T14:45:33.224Z,17.30
2022-10-23T14:48:21.160Z,17.30
2022-10-23T14:51:17.069Z,17.30
2022-10-23T14:54:07.142Z,17.30
2022-10-23T14:56:54.971Z,17.30
2022-10-23T14:59:42.793Z,17.30
2022-10-23T15:02:30.516Z,17.30
2022-10-23T15:05:18.368Z,17.30
2022-10-23T15:08:06.428Z,17.20
2022-10-23T15:10:55.476Z,17.20
2022-10-23T15:13:43.179Z,17.10
2022-10-23T15:16:30.888Z,17.10
2022-10-23T15:19:19.074Z,17.10
2022-10-23T15:22:07.042Z,17.00
2022-10-23T15:24:56.366Z,17.00
2022-10-23T15:27:45.690Z,17.00
2022-10-23T15:30:34.066Z,16.90
2022-10-23T15:33:22.260Z,16.90
2022-10-23T15:36:10.379Z,16.90
2022-10-23T15:38:58.229Z,16.80
2022-10-23T15:41:46.086Z,16.80
2022-10-23T15:44:35.367Z,16.70
2022-10-23T15:47:23.339Z,16.70
2022-10-23T15:50:11.191Z,16.70
2022-10-23T15:52:59.171Z,16.60
2022-10-23T15:55:47.697Z,16.60
2022-10-23T15:58:35.552Z,16.60
2022-10-23T16:01:24.753Z,16.60
2022-10-23T16:04:12.713Z,16.50
2022-10-23T16:07:00.482Z,16.50
2022-10-23T16:09:48.267Z,16.50
2022-10-23T16:12:36.136Z,16.40
2022-10-23T16:15:23.984Z,16.50
2022-10-23T16:18:15.985Z,16.40
2022-10-23T16:21:03.845Z,16.40
2022-10-23T16:23:52.096Z,16.30
2022-10-23T16:26:40.755Z,16.30
2022-10-23T16:29:29.441Z,16.30
2022-10-23T16:32:18.291Z,16.30
2022-10-23T16:35:11.011Z,16.20
2022-10-23T16:38:00.890Z,16.20
2022-10-23T16:40:52.923Z,16.20
2022-10-23T16:43:40.861Z,16.20
2022-10-23T16:46:28.813Z,16.10
2022-10-23T16:49:16.639Z,16.10
2022-10-23T16:52:05.894Z,16.10
2022-10-23T16:54:54.403Z,16.10
2022-10-23T16:57:43.539Z,16.00
2022-10-23T17:00:34.948Z,16.00
2022-10-23T17:03:22.678Z,16.00
2022-10-23T17:06:11.497Z,16.00
2022-10-23T17:09:01.251Z,16.00
2022-10-23T17:11:51.009Z,16.00
2022-10-23T17:14:39.096Z,16.00
2022-10-23T17:17:26.800Z,16.00
2022-10-23T17:20:14.715Z,16.00
2022-10-23T17:23:02.448Z,16.00
2022-10-23T17:25:51.502Z,16.00
2022-10-23T17:28:42.158Z,16.00
2022-10-23T17:31:31.428Z,16.00
2022-10-23T17:34:23.284Z,16.00
2022-10-23T17:37:13.119Z,16.00
2022-10-23T17:40:02.399Z,16.00
2022-10-23T17:42:51.926Z,15.90
2022-10-23T17:45:40.381Z,16.00
2022-10-23T17:48:28.393Z,15.90
2022-10-23T17:51:17.560Z,16.00
2022-10-23T17:54:06.790Z,16.00
2022-10-23T17:56:54.802Z,15.90
2022-10-23T17:59:43.866Z,15.90
2022-10-23T18:02:31.759Z,15.90
2022-10-23T18:05:19.516Z,15.90
2022-10-23T18:08:07.311Z,15.80
2022-10-23T18:10:55.000Z,15.70
2022-10-23T18:13:46.128Z,15.60
2022-10-23T18:16:36.806Z,15.60
2022-10-23T18:19:24.495Z,15.50
2022-10-23T18:22:12.583Z,15.40
2022-10-23T18:25:00.806Z,15.30
2022-10-23T18:27:48.661Z,15.20
2022-10-23T18:33:27.497Z,15.20
2022-10-23T18:36:15.877Z,15.20
2022-10-23T18:39:04.646Z,15.10
2022-10-23T18:41:53.532Z,15.20
2022-10-23T18:44:46.845Z,15.10
2022-10-23T18:47:34.592Z,15.00
2022-10-23T18:50:23.603Z,14.90
2022-10-23T18:53:11.347Z,14.90
2022-10-23T18:56:00.587Z,14.90
2022-10-23T18:58:48.382Z,14.90
2022-10-23T19:01:37.597Z,14.90
2022-10-23T19:04:25.927Z,14.90
2022-10-23T19:07:15.225Z,15.00
2022-10-23T19:10:03.342Z,15.00
2022-10-23T19:12:51.106Z,15.10
2022-10-23T19:15:39.062Z,15.10
2022-10-23T19:18:26.880Z,15.10
2022-10-23T19:21:15.112Z,15.10
2022-10-23T19:24:05.837Z,15.20
2022-10-23T19:26:53.598Z,15.10
2022-10-23T19:29:43.378Z,15.10
2022-10-23T19:32:31.141Z,15.10
2022-10-23T19:35:20.384Z,15.10
2022-10-23T19:38:08.215Z,15.10
2022-10-23T19:40:59.778Z,15.00
2022-10-23T19:43:47.571Z,15.10
2022-10-23T19:46:36.089Z,15.10
2022-10-23T19:49:24.176Z,15.00
2022-10-23T19:52:11.928Z,15.00
2022-10-23T19:54:59.873Z,15.10
2022-10-23T19:57:50.058Z,15.00
2022-10-23T20:00:37.751Z,15.10
2022-10-23T20:03:25.863Z,15.00
2022-10-23T20:06:15.594Z,15.00
2022-10-23T20:09:05.060Z,14.90
2022-10-23T20:11:52.809Z,14.90
2022-10-23T20:14:42.066Z,14.90
2022-10-23T20:17:29.980Z,14.80
2022-10-23T20:20:17.972Z,14.70
2022-10-23T20:23:05.764Z,14.70
2022-10-23T20:25:53.523Z,14.70
2022-10-23T20:28:41.402Z,14.70
2022-10-23T20:31:30.563Z,14.70
2022-10-23T20:34:19.217Z,14.70
2022-10-23T20:37:07.471Z,14.70
2022-10-23T20:39:55.463Z,14.70
2022-10-23T20:42:43.199Z,14.80
2022-10-23T20:45:31.218Z,14.90
2022-10-23T20:48:20.340Z,14.80
2022-10-23T20:51:09.113Z,14.80
2022-10-23T20:53:57.110Z,14.80
2022-10-23T20:56:44.811Z,14.80
2022-10-23T20:59:34.030Z,14.80
2022-10-23T21:02:21.830Z,14.80
2022-10-23T21:05:11.650Z,14.80
2022-10-23T21:07:59.506Z,14.80
2022-10-23T21:10:47.880Z,14.80
2022-10-23T21:13:35.801Z,14.70
2022-10-23T21:16:27.595Z,14.70
2022-10-23T21:19:16.761Z,14.70
2022-10-23T21:22:05.924Z,14.70
2022-10-23T21:24:56.063Z,14.80
2022-10-23T21:27:44.128Z,14.80
2022-10-23T21:30:32.077Z,14.70
2022-10-23T21:33:21.306Z,14.80
2022-10-23T21:36:16.941Z,14.80
2022-10-23T21:39:06.220Z,14.80
2022-10-23T21:41:53.941Z,14.80
2022-10-23T21:44:41.770Z,14.80
2022-10-23T21:47:29.514Z,14.80
2022-10-23T21:50:17.292Z,14.90
2022-10-23T21:53:05.141Z,14.90
2022-10-23T21:55:54.926Z,14.90
2022-10-23T21:58:42.643Z,14.90
2022-10-23T22:01:30.848Z,14.90
2022-10-23T22:04:19.711Z,14.90
2022-10-23T22:07:10.753Z,14.90
2022-10-23T22:09:58.776Z,15.00
2022-10-23T22:12:47.917Z,15.00
2022-10-23T22:15:35.674Z,15.00
2022-10-23T22:18:24.161Z,15.00
2022-10-23T22:21:13.403Z,15.00
2022-10-23T22:24:01.603Z,15.10
2022-10-23T22:26:51.123Z,15.10
2022-10-23T22:29:40.605Z,15.00
2022-10-23T22:32:28.340Z,15.10
2022-10-23T22:35:16.088Z,15.10
2022-10-23T22:38:03.937Z,15.10
2022-10-23T22:40:51.723Z,15.10
2022-10-23T22:43:39.895Z,15.10
2022-10-23T22:46:29.600Z,15.10
2022-10-23T22:49:17.286Z,15.10
2022-10-23T22:52:05.148Z,15.20
2022-10-23T22:54:52.840Z,15.20
2022-10-23T22:57:40.570Z,15.20
2022-10-23T23:00:28.252Z,15.10
2022-10-23T23:03:17.589Z,15.20
2022-10-23T23:06:06.100Z,15.10
2022-10-23T23:08:54.142Z,15.10
2022-10-23T23:11:51.274Z,15.20
2022-10-23T23:14:39.682Z,15.10
2022-10-23T23:17:27.392Z,15.20
2022-10-23T23:20:16.669Z,15.20
2022-10-23T23:23:04.555Z,15.10
2022-10-23T23:25:54.179Z,15.20
2022-10-23T23:28:41.899Z,15.20
2022-10-23T23:31:29.608Z,15.20
2022-10-23T23:34:17.311Z,15.20
2022-10-23T23:37:06.383Z,15.20
2022-10-23T23:39:54.181Z,15.20
2022-10-23T23:42:42.089Z,15.20
2022-10-23T23:45:30.060Z,15.20
2022-10-23T23:48:17.771Z,15.30
2022-10-23T23:51:05.815Z,15.30
2022-10-23T23:53:54.918Z,15.30
2022-10-23T23:56:42.662Z,15.30
2022-10-23T23:59:30.398Z,15.30
